Saint Louis, Missouri
Traffic Map
Current Weather Conditions
Saint Louis, Missouri
Overcast
Overcast
36°
Feels Like: 36°
Wind Chill: 36° Ceiling: 5500
Heat Index: 36° Visibility: 8mi
Dew Point: 29° Wind: 3mph
Humidity: 76% Direction: 90° (E)
Pressure: 30.27in Gusts: 0mph
Raw Report DataKCPS 200153Z 09003KT 8SM OVC055 02/M02 A3027 RMK AO2 SLP253 T00221017
Traffic Incident Summary
Active as of:
Severity:
Category:
InformationThere was an issue retrieving the traffic information for this location. Please try a different location or try again shortly.
Advertisements
Track Severe Weather on mobile